Time;durP1;ratioP1;P1;durP2;ratioP2;P2;SDS_P1;SDS_P2;PMS_P1;PMS_P2;Temp;Humidity;BMP_temperature;BMP_pressure;BME280_temperature;BME280_humidity;BME280_pressure;Samples;Min_cycle;Max_cycle;Signal;HPM_P1;HPM_P2
2023/10/09 00:00:55;;;;;;;16.10;12.60;;;15.60;99.90;;;;;;5101385;28;20448;-64
2023/10/09 00:02:53;;;;;;;18.93;12.80;;;15.60;99.90;;;;;;5089773;28;20436;-64
2023/10/09 00:05:25;;;;;;;17.67;12.53;;;15.70;99.90;;;;;;5102136;28;20995;-64
2023/10/09 00:07:55;;;;;;;18.33;12.10;;;15.70;99.90;;;;;;5087470;28;20492;-63
2023/10/09 00:10:21;;;;;;;18.47;12.70;;;15.70;99.90;;;;;;5105423;28;20775;-64
2023/10/09 00:12:49;;;;;;;16.63;12.13;;;15.70;99.90;;;;;;5102861;28;20423;-64
2023/10/09 00:15:17;;;;;;;16.40;12.60;;;15.60;99.90;;;;;;5105389;28;20184;-64
2023/10/09 00:17:46;;;;;;;17.40;11.87;;;15.70;99.90;;;;;;5097778;28;21171;-64
2023/10/09 00:20:21;;;;;;;20.23;12.80;;;15.60;99.90;;;;;;5105212;28;20436;-64
2023/10/09 00:22:47;;;;;;;20.60;12.93;;;15.70;99.90;;;;;;5102696;28;20931;-64
2023/10/09 00:25:22;;;;;;;14.17;11.33;;;15.60;99.90;;;;;;5104356;28;20425;-64
2023/10/09 00:27:48;;;;;;;15.90;11.37;;;15.70;99.90;;;;;;5106006;28;20563;-63
2023/10/09 00:30:20;;;;;;;16.97;12.03;;;15.70;99.90;;;;;;5101708;28;20479;-63
2023/10/09 00:33:03;;;;;;;19.10;12.70;;;15.70;99.90;;;;;;5102891;28;20417;-64
2023/10/09 00:38:23;;;;;;;19.23;12.03;;;15.70;99.90;;;;;;5097738;28;20451;-64
2023/10/09 00:41:24;;;;;;;18.07;11.10;;;15.70;99.90;;;;;;5084459;28;20512;-63
2023/10/09 00:43:43;;;;;;;16.57;10.80;;;15.70;99.90;;;;;;5095505;28;20476;-63
2023/10/09 00:46:23;;;;;;;21.17;12.83;;;15.70;99.90;;;;;;5102598;28;20457;-64
2023/10/09 00:48:55;;;;;;;18.23;11.20;;;15.80;99.90;;;;;;5104013;28;20985;-64
2023/10/09 00:51:22;;;;;;;13.97;10.90;;;15.80;99.90;;;;;;5103449;28;20478;-63
2023/10/09 00:53:51;;;;;;;14.00;10.23;;;15.90;99.90;;;;;;5100071;28;20905;-64
2023/10/09 00:56:19;;;;;;;18.03;11.17;;;15.90;99.90;;;;;;5101343;28;20465;-64
2023/10/09 00:58:55;;;;;;;13.30;9.30;;;16.00;99.90;;;;;;5103487;28;20757;-64
2023/10/09 01:01:28;;;;;;;15.13;10.00;;;16.00;99.90;;;;;;5100563;28;20425;-64
2023/10/09 01:03:54;;;;;;;13.27;10.40;;;16.00;99.90;;;;;;5100553;28;20429;-63
2023/10/09 01:06:27;;;;;;;20.30;11.27;;;16.00;99.90;;;;;;5100459;28;20429;-64
2023/10/09 01:09:13;;;;;;;16.53;10.90;;;16.00;99.90;;;;;;5100342;28;20426;-64
2023/10/09 01:12:03;;;;;;;18.47;10.77;;;16.10;99.90;;;;;;5101503;28;20452;-64
2023/10/09 01:14:44;;;;;;;16.23;10.60;;;16.10;99.90;;;;;;5081421;28;20437;-63
2023/10/09 01:20:52;;;;;;;13.70;10.27;;;16.10;99.90;;;;;;5097704;28;20429;-63
2023/10/09 01:23:18;;;;;;;13.37;9.27;;;16.10;99.90;;;;;;5045136;28;20586;-64
2023/10/09 01:25:53;;;;;;;13.00;9.30;;;16.10;99.90;;;;;;5055617;28;20481;-64
2023/10/09 01:28:26;;;;;;;11.40;9.13;;;16.10;99.90;;;;;;5058708;28;21024;-64
2023/10/09 01:31:20;;;;;;;14.77;10.93;;;16.10;99.90;;;;;;5057347;28;20566;-63
2023/10/09 01:34:03;;;;;;;13.23;9.83;;;16.10;99.90;;;;;;5054586;28;20487;-64
2023/10/09 01:37:18;;;;;;;12.00;9.77;;;16.10;99.90;;;;;;5050349;28;20482;-64
2023/10/09 01:40:35;;;;;;;16.80;10.53;;;16.10;99.90;;;;;;5051243;28;20431;-63
2023/10/09 01:43:18;;;;;;;13.57;9.30;;;16.10;99.90;;;;;;5047260;28;20439;-64
2023/10/09 01:46:01;;;;;;;15.10;10.23;;;16.10;99.90;;;;;;5048784;28;20549;-64
2023/10/09 01:48:46;;;;;;;15.00;8.83;;;16.20;99.90;;;;;;5092456;28;20451;-63
2023/10/09 01:53:59;;;;;;;14.63;9.20;;;16.20;99.90;;;;;;5101289;28;20429;-64
2023/10/09 01:56:25;;;;;;;13.50;9.00;;;16.10;99.90;;;;;;5098510;28;20473;-64
2023/10/09 01:58:57;;;;;;;12.50;10.07;;;16.10;99.90;;;;;;5099028;28;20219;-64
2023/10/09 02:01:23;;;;;;;15.57;10.13;;;16.20;99.90;;;;;;5096584;28;20309;-64
2023/10/09 02:03:51;;;;;;;10.93;8.30;;;16.20;99.90;;;;;;5098453;28;20421;-64
2023/10/09 02:09:31;;;;;;;14.43;9.30;;;16.10;99.90;;;;;;5037645;28;20486;-64
2023/10/09 02:12:35;;;;;;;12.97;9.60;;;16.20;99.90;;;;;;5093701;28;20441;-63
2023/10/09 02:15:06;;;;;;;10.70;8.83;;;16.10;99.90;;;;;;5100123;28;20524;-64
2023/10/09 02:18:01;;;;;;;12.87;9.57;;;16.10;99.90;;;;;;5097504;28;20507;-63
2023/10/09 02:20:40;;;;;;;13.63;9.43;;;16.10;99.90;;;;;;5094035;28;20446;-64
2023/10/09 02:23:13;;;;;;;15.60;10.13;;;16.10;99.90;;;;;;5102795;28;20426;-64
2023/10/09 02:25:44;;;;;;;11.67;8.63;;;16.10;99.90;;;;;;5088152;28;20442;-63
2023/10/09 02:35:59;;;;;;;11.63;8.10;;;16.10;99.90;;;;;;5047969;28;20438;-63
2023/10/09 02:42:41;;;;;;;;;;;;;;;;;;;;;
2023/10/09 02:49:31;;;;;;;12.87;9.40;;;16.10;99.90;;;;;;4859062;29;20448;-65
2023/10/09 02:51:32;;;;;;;13.50;9.17;;;16.10;99.90;;;;;;4862697;29;20458;-64
2023/10/09 02:54:46;;;;;;;11.83;9.50;;;16.10;99.90;;;;;;4860879;29;20441;-64
2023/10/09 02:57:21;;;;;;;13.47;9.73;;;16.10;99.90;;;;;;4843722;29;20480;-64
2023/10/09 03:00:36;;;;;;;13.57;9.60;;;16.10;99.90;;;;;;4923682;28;20535;-64
2023/10/09 03:04:01;;;;;;;11.40;9.80;;;16.20;99.90;;;;;;4942606;28;20443;-65
2023/10/09 03:09:56;;;;;;;15.80;10.63;;;16.20;99.90;;;;;;5001177;28;20430;-64
2023/10/09 03:12:27;;;;;;;15.10;9.40;;;16.30;99.90;;;;;;4996755;28;20445;-64
2023/10/09 03:15:12;;;;;;;13.63;9.47;;;16.30;99.90;;;;;;4982836;28;20238;-62
2023/10/09 03:18:18;;;;;;;13.73;9.27;;;16.30;99.90;;;;;;5002966;28;20568;-63
2023/10/09 03:20:47;;;;;;;17.33;9.47;;;16.30;99.90;;;;;;4917533;28;20862;-63
2023/10/09 03:23:14;;;;;;;11.80;9.13;;;16.30;99.90;;;;;;5024593;28;20429;-64
2023/10/09 03:26:46;;;;;;;11.13;9.07;;;16.30;99.90;;;;;;5081050;28;20800;-64
2023/10/09 03:29:53;;;;;;;13.03;8.80;;;16.30;99.90;;;;;;5006385;28;20457;-63
2023/10/09 03:32:56;;;;;;;14.73;9.53;;;16.30;99.90;;;;;;5034029;28;20437;-64
2023/10/09 03:38:20;;;;;;;13.40;10.23;;;16.30;99.90;;;;;;4999903;28;20540;-63
2023/10/09 03:44:19;;;;;;;10.90;8.53;;;16.30;99.90;;;;;;4982746;28;20435;-62
2023/10/09 03:46:51;;;;;;;13.73;8.90;;;16.30;99.90;;;;;;5011999;28;20784;-63
2023/10/09 03:56:39;;;;;;;12.77;9.73;;;16.30;99.90;;;;;;4940325;29;20600;-64
2023/10/09 03:59:21;;;;;;;13.73;9.80;;;16.30;99.90;;;;;;4936542;29;20781;-63
2023/10/09 04:02:25;;;;;;;12.87;9.37;;;16.30;99.90;;;;;;4942617;29;20886;-64
2023/10/09 04:05:03;;;;;;;12.40;9.37;;;16.30;99.90;;;;;;4941756;28;20522;-64
2023/10/09 04:08:29;;;;;;;11.00;8.67;;;16.30;99.90;;;;;;4960865;28;20467;-63
2023/10/09 04:11:33;;;;;;;15.20;9.07;;;16.20;99.90;;;;;;4960664;28;20472;-63
2023/10/09 04:14:10;;;;;;;13.07;8.67;;;16.30;99.90;;;;;;4880535;29;20454;-63
2023/10/09 04:22:50;;;;;;;11.73;8.30;;;16.30;99.90;;;;;;4891889;29;20454;-63
2023/10/09 04:31:06;;;;;;;13.07;9.40;;;16.40;99.90;;;;;;4979726;28;20791;-63
2023/10/09 04:33:57;;;;;;;11.47;9.17;;;16.30;99.90;;;;;;4983887;28;20444;-64
2023/10/09 04:43:44;;;;;;;10.90;8.23;;;16.30;99.90;;;;;;4955665;28;20974;-63
2023/10/09 04:46:28;;;;;;;10.60;8.10;;;16.30;99.90;;;;;;4959920;28;20509;-64
2023/10/09 04:49:15;;;;;;;9.50;7.93;;;16.30;99.90;;;;;;4960396;28;20457;-64
2023/10/09 04:51:58;;;;;;;13.37;8.77;;;16.30;99.90;;;;;;4966836;28;20495;-61
2023/10/09 05:09:24;;;;;;;12.30;8.70;;;16.20;99.90;;;;;;5099730;28;21288;-63
2023/10/09 05:15:04;;;;;;;13.47;9.00;;;16.20;99.90;;;;;;5092453;28;20904;-63
2023/10/09 05:17:28;;;;;;;9.30;7.47;;;16.20;99.90;;;;;;5097443;28;20469;-64
2023/10/09 05:32:29;;;;;;;9.10;7.07;;;16.10;99.90;;;;;;5097604;28;20893;-63
2023/10/09 05:38:25;;;;;;;12.37;8.07;;;16.20;99.90;;;;;;5098762;28;20465;-64
2023/10/09 05:41:31;;;;;;;10.17;8.30;;;16.20;99.90;;;;;;5101523;28;20452;-64
2023/10/09 06:03:16;;;;;;;16.13;10.30;;;16.20;99.90;;;;;;5097554;28;20433;-64
2023/10/09 06:14:14;;;;;;;11.63;9.07;;;16.20;99.90;;;;;;5000646;28;21027;-65
2023/10/09 06:23:50;;;;;;;12.77;8.67;;;16.20;99.90;;;;;;4977893;28;20815;-65
2023/10/09 06:26:32;;;;;;;14.67;9.50;;;16.30;99.90;;;;;;4976896;28;20927;-64
2023/10/09 06:35:53;;;;;;;9.43;8.30;;;16.40;99.90;;;;;;4962307;28;20435;-64
2023/10/09 06:45:20;;;;;;;10.80;9.50;;;16.40;99.90;;;;;;4911984;29;20506;-65
2023/10/09 06:53:28;;;;;;;13.80;9.23;;;16.40;99.90;;;;;;4936688;29;20855;-64
2023/10/09 06:58:47;;;;;;;11.23;8.77;;;16.40;99.90;;;;;;5000745;28;20422;-62
2023/10/09 07:12:20;;;;;;;15.93;9.83;;;16.40;99.90;;;;;;5017231;28;21022;-64
2023/10/09 07:16:23;;;;;;;;;;;;;;;;;;;;;
2023/10/09 07:20:14;;;;;;;12.87;10.03;;;16.50;99.90;;;;;;5011073;28;20436;-64
2023/10/09 07:23:13;;;;;;;13.93;10.63;;;16.40;99.90;;;;;;5015387;28;20444;-64
2023/10/09 07:26:17;;;;;;;14.73;11.10;;;16.50;99.90;;;;;;5068135;28;20616;-64
2023/10/09 07:29:24;;;;;;;16.83;10.40;;;16.50;99.90;;;;;;5066403;28;20444;-64
2023/10/09 07:35:04;;;;;;;13.40;10.47;;;16.50;99.90;;;;;;5049224;28;20443;-63
2023/10/09 07:38:05;;;;;;;12.33;10.07;;;16.50;99.90;;;;;;5050430;28;20540;-63
2023/10/09 07:40:51;;;;;;;12.00;10.47;;;16.60;99.90;;;;;;4998975;28;20976;-63
2023/10/09 07:43:25;;;;;;;13.07;9.33;;;16.60;99.90;;;;;;5049577;28;20505;-62
2023/10/09 07:48:25;;;;;;;13.70;10.30;;;16.60;99.90;;;;;;5031852;28;20463;-63
2023/10/09 07:50:57;;;;;;;14.90;10.67;;;16.60;99.90;;;;;;5056835;28;21461;-63
2023/10/09 07:53:43;;;;;;;18.50;12.23;;;16.70;99.90;;;;;;5054265;28;20428;-63
2023/10/09 07:56:22;;;;;;;15.07;9.90;;;16.70;99.90;;;;;;5062247;28;20469;-63
2023/10/09 07:59:23;;;;;;;13.67;10.23;;;16.70;99.90;;;;;;5062037;28;20470;-63
2023/10/09 08:01:52;;;;;;;16.37;11.70;;;16.70;99.90;;;;;;5041283;28;21072;-62
2023/10/09 08:04:53;;;;;;;12.27;9.97;;;16.80;99.90;;;;;;5062367;28;20461;-62
2023/10/09 08:07:34;;;;;;;10.80;9.17;;;16.80;99.90;;;;;;5094200;28;20426;-63
2023/10/09 08:16:17;;;;;;;17.30;11.60;;;16.80;99.90;;;;;;5097425;28;20756;-65
2023/10/09 08:18:45;;;;;;;13.77;9.67;;;16.80;99.90;;;;;;5102162;28;20430;-64
2023/10/09 08:21:41;;;;;;;15.70;10.60;;;16.80;99.90;;;;;;5099168;28;20436;-64
2023/10/09 08:24:58;;;;;;;15.17;9.80;;;16.80;99.90;;;;;;5089428;28;20461;-64
2023/10/09 08:33:01;;;;;;;11.73;9.23;;;17.00;99.90;;;;;;5097629;28;20488;-64
2023/10/09 08:35:47;;;;;;;17.70;10.23;;;17.00;99.90;;;;;;5100314;28;21267;-64
2023/10/09 08:38:23;;;;;;;11.80;10.20;;;17.00;99.90;;;;;;5097033;28;20437;-64
2023/10/09 08:40:50;;;;;;;14.87;11.00;;;17.00;99.90;;;;;;5102459;28;20441;-64
2023/10/09 08:43:30;;;;;;;13.77;10.50;;;17.10;99.90;;;;;;5086245;28;20445;-64
2023/10/09 08:46:07;;;;;;;14.13;9.90;;;17.00;99.90;;;;;;5099711;28;20457;-65
2023/10/09 08:48:35;;;;;;;14.70;10.83;;;17.00;99.90;;;;;;5092551;28;20429;-65
2023/10/09 08:51:26;;;;;;;12.73;10.47;;;17.00;99.90;;;;;;5086553;28;20433;-65
2023/10/09 08:54:14;;;;;;;14.50;10.00;;;17.00;99.90;;;;;;5060422;28;20432;-64
2023/10/09 08:57:04;;;;;;;15.90;11.77;;;17.00;99.90;;;;;;5089604;28;20704;-63
2023/10/09 08:59:48;;;;;;;14.27;10.70;;;17.00;99.90;;;;;;5066747;28;20537;-65
2023/10/09 09:02:15;;;;;;;11.87;10.67;;;17.00;99.90;;;;;;5086386;28;20436;-64
2023/10/09 09:04:50;;;;;;;14.97;10.67;;;17.00;99.90;;;;;;5085985;28;20935;-64
2023/10/09 09:07:59;;;;;;;12.83;10.80;;;17.10;99.90;;;;;;5094188;28;20439;-65
2023/10/09 09:10:35;;;;;;;15.07;11.20;;;17.00;99.90;;;;;;4991008;28;20443;-65
2023/10/09 09:13:19;;;;;;;16.13;11.80;;;17.10;99.90;;;;;;4988538;28;20449;-65
2023/10/09 09:15:47;;;;;;;11.60;10.13;;;17.10;99.90;;;;;;5073460;28;20439;-64
2023/10/09 09:18:17;;;;;;;16.40;11.40;;;17.10;99.90;;;;;;5086257;28;20525;-65
2023/10/09 09:20:53;;;;;;;13.67;10.20;;;17.20;99.90;;;;;;5083989;28;20952;-64
2023/10/09 09:23:26;;;;;;;14.90;10.80;;;17.20;99.90;;;;;;5083414;28;20447;-64
2023/10/09 09:26:08;;;;;;;11.83;10.30;;;17.20;99.90;;;;;;5086574;28;20441;-64
2023/10/09 09:28:55;;;;;;;16.20;11.83;;;17.30;99.90;;;;;;5086860;28;20456;-64
2023/10/09 09:31:22;;;;;;;13.80;11.77;;;17.30;99.90;;;;;;5081519;28;20441;-64
2023/10/09 09:34:16;;;;;;;13.17;10.30;;;17.30;99.90;;;;;;5075617;28;20578;-64
2023/10/09 09:40:30;;;;;;;14.17;11.03;;;17.50;99.90;;;;;;4984327;28;20446;-64
2023/10/09 09:43:05;;;;;;;13.77;10.80;;;17.70;99.90;;;;;;4994377;28;20460;-64
2023/10/09 09:45:38;;;;;;;12.63;10.07;;;17.90;99.90;;;;;;4991427;28;20489;-64
2023/10/09 09:48:15;;;;;;;10.90;9.80;;;18.00;99.90;;;;;;5044266;28;20452;-64
2023/10/09 09:50:47;;;;;;;13.20;10.70;;;18.10;99.90;;;;;;5091702;28;20485;-64
2023/10/09 09:56:30;;;;;;;15.33;11.07;;;18.20;99.90;;;;;;5096814;28;20524;-65
2023/10/09 09:59:07;;;;;;;13.73;9.30;;;18.20;99.90;;;;;;5100451;28;20438;-64
2023/10/09 10:01:41;;;;;;;12.70;9.23;;;18.30;99.90;;;;;;5094481;28;20433;-64
2023/10/09 10:04:21;;;;;;;13.40;10.63;;;18.30;99.90;;;;;;5093110;28;21001;-64
2023/10/09 10:06:51;;;;;;;17.50;10.50;;;18.30;99.90;;;;;;5098276;28;20505;-65
2023/10/09 10:10:14;;;;;;;14.80;10.40;;;18.30;99.90;;;;;;5096589;28;20470;-64
2023/10/09 10:16:34;;;;;;;13.07;9.93;;;18.30;99.90;;;;;;5089632;28;20426;-65
2023/10/09 10:22:29;;;;;;;12.07;10.77;;;18.40;99.90;;;;;;4993831;28;20443;-63
2023/10/09 10:24:57;;;;;;;16.73;10.90;;;18.50;99.90;;;;;;4993183;28;20495;-63
2023/10/09 10:27:32;;;;;;;11.50;9.63;;;18.50;99.90;;;;;;4993923;28;20463;-63
2023/10/09 10:30:13;;;;;;;11.80;9.80;;;18.50;99.90;;;;;;4975733;28;20441;-64
2023/10/09 10:35:46;;;;;;;;;;;;;;;;;;;;;
2023/10/09 10:41:31;;;;;;;13.83;9.03;;;18.50;99.90;;;;;;5099656;28;20465;-64
2023/10/09 10:43:59;;;;;;;13.53;9.77;;;18.60;99.90;;;;;;5096042;28;20480;-63
2023/10/09 10:46:37;;;;;;;16.67;8.80;;;18.60;99.90;;;;;;5097756;28;20465;-64
2023/10/09 10:49:21;;;;;;;12.70;9.70;;;18.60;99.90;;;;;;5096016;28;20983;-63
2023/10/09 11:03:56;;;;;;;12.30;10.17;;;18.60;99.90;;;;;;5094035;28;20422;-63
2023/10/09 11:06:49;;;;;;;17.80;10.70;;;18.70;99.90;;;;;;5074505;28;20481;-63
2023/10/09 11:18:51;;;;;;;12.63;10.20;;;18.90;99.90;;;;;;5067665;28;20839;-64
2023/10/09 11:21:40;;;;;;;12.70;9.73;;;18.90;99.90;;;;;;5082902;28;20529;-63
2023/10/09 11:24:24;;;;;;;12.07;9.60;;;18.90;99.90;;;;;;5085905;28;20520;-63
2023/10/09 11:27:05;;;;;;;13.87;10.10;;;19.00;99.90;;;;;;5090434;28;20437;-64
2023/10/09 11:30:32;;;;;;;13.70;10.40;;;18.90;99.90;;;;;;5080461;28;20438;-64
2023/10/09 11:33:14;;;;;;;11.40;9.60;;;18.90;99.90;;;;;;5074577;28;20442;-64
2023/10/09 11:39:35;;;;;;;15.00;10.40;;;18.90;99.90;;;;;;5074516;28;20443;-64
2023/10/09 11:42:14;;;;;;;11.63;10.43;;;19.00;99.90;;;;;;5090838;28;20849;-63
2023/10/09 11:44:55;;;;;;;11.60;7.93;;;19.00;99.90;;;;;;5081448;28;21052;-64
2023/10/09 11:47:33;;;;;;;12.87;9.27;;;19.00;99.90;;;;;;5090094;28;20440;-63
2023/10/09 11:50:35;;;;;;;13.13;10.33;;;19.10;99.90;;;;;;5091431;28;20788;-64
2023/10/09 11:55:52;;;;;;;12.00;10.03;;;19.20;99.90;;;;;;5073828;28;20434;-64
2023/10/09 11:58:22;;;;;;;12.80;9.93;;;19.30;99.90;;;;;;5085586;28;20429;-64
2023/10/09 12:01:42;;;;;;;14.00;8.93;;;19.30;99.90;;;;;;5080575;28;20453;-64
2023/10/09 12:04:14;;;;;;;12.40;9.40;;;19.40;99.90;;;;;;5076906;28;20430;-65
2023/10/09 12:06:42;;;;;;;13.27;9.87;;;19.40;99.90;;;;;;5081378;28;20426;-64
2023/10/09 12:09:24;;;;;;;14.27;9.87;;;19.50;99.90;;;;;;5085276;28;20475;-64
2023/10/09 12:12:00;;;;;;;13.93;11.07;;;19.50;99.90;;;;;;5085034;28;20472;-64
2023/10/09 12:14:28;;;;;;;14.90;10.37;;;19.50;99.90;;;;;;5082823;28;20993;-64
2023/10/09 12:19:56;;;;;;;11.90;9.30;;;19.40;99.90;;;;;;5085524;28;20427;-64
2023/10/09 12:23:00;;;;;;;12.87;9.70;;;19.40;99.90;;;;;;5084826;28;20433;-64
2023/10/09 12:25:35;;;;;;;14.80;11.10;;;19.50;99.90;;;;;;5083869;28;21009;-64
2023/10/09 12:28:12;;;;;;;12.23;9.90;;;19.50;99.90;;;;;;5085050;28;20485;-64
2023/10/09 12:31:05;;;;;;;15.20;9.50;;;19.50;99.90;;;;;;5083865;28;20433;-64
2023/10/09 12:33:39;;;;;;;12.57;9.57;;;19.40;99.90;;;;;;5083185;28;20435;-64
2023/10/09 12:36:25;;;;;;;12.63;11.17;;;19.40;99.90;;;;;;5058460;28;20535;-64
2023/10/09 12:38:58;;;;;;;13.47;8.97;;;19.40;99.90;;;;;;5062707;28;20604;-64
2023/10/09 12:41:35;;;;;;;13.27;9.60;;;19.50;99.90;;;;;;5086146;28;20419;-64
2023/10/09 12:44:49;;;;;;;12.47;10.47;;;19.40;99.90;;;;;;5085147;28;20445;-64
2023/10/09 12:47:14;;;;;;;11.83;9.70;;;19.50;99.90;;;;;;4979085;28;20446;-64
2023/10/09 12:49:43;;;;;;;12.73;9.23;;;19.50;99.90;;;;;;4996127;28;20528;-64
2023/10/09 12:52:41;;;;;;;14.37;11.00;;;19.50;99.90;;;;;;5025320;28;20222;-64
2023/10/09 12:55:32;;;;;;;12.33;10.13;;;19.50;99.90;;;;;;5002902;28;20441;-64
2023/10/09 12:58:07;;;;;;;12.43;10.13;;;19.50;99.90;;;;;;5074881;28;20525;-64
2023/10/09 13:03:28;;;;;;;12.00;8.87;;;19.40;99.90;;;;;;5073148;28;20442;-64
2023/10/09 13:06:11;;;;;;;12.23;10.00;;;19.40;99.90;;;;;;5072207;28;20431;-64
2023/10/09 13:08:53;;;;;;;12.43;9.63;;;19.40;99.90;;;;;;5071641;28;20465;-64
2023/10/09 13:11:25;;;;;;;12.30;9.23;;;19.40;99.90;;;;;;5072510;28;20422;-63
2023/10/09 13:14:11;;;;;;;12.53;9.33;;;19.40;99.90;;;;;;5073858;28;20435;-64
2023/10/09 13:16:40;;;;;;;11.07;8.67;;;19.40;99.90;;;;;;5075627;28;20474;-64
2023/10/09 13:19:15;;;;;;;11.60;9.60;;;19.40;99.90;;;;;;5082594;28;20443;-64
2023/10/09 13:21:50;;;;;;;13.80;10.17;;;19.40;99.90;;;;;;5075004;28;20422;-64
2023/10/09 13:24:24;;;;;;;11.77;9.50;;;19.40;99.90;;;;;;5083552;28;20422;-63
2023/10/09 13:26:59;;;;;;;14.87;9.90;;;19.40;99.90;;;;;;5080427;28;21001;-63
2023/10/09 13:29:28;;;;;;;17.00;10.27;;;19.40;99.90;;;;;;5076114;28;20951;-64
2023/10/09 13:32:13;;;;;;;10.93;8.80;;;19.50;99.90;;;;;;5078166;28;20423;-64
2023/10/09 13:35:02;;;;;;;13.60;9.77;;;19.50;99.90;;;;;;5074316;28;20491;-64
2023/10/09 13:37:27;;;;;;;16.90;11.43;;;19.60;99.90;;;;;;5070282;28;20566;-64
2023/10/09 13:40:09;;;;;;;11.40;9.93;;;19.70;99.90;;;;;;5076024;28;20431;-64
2023/10/09 13:42:38;;;;;;;12.00;9.70;;;19.80;99.90;;;;;;5070903;28;20504;-64
2023/10/09 13:45:15;;;;;;;11.23;9.27;;;19.90;99.90;;;;;;5079832;28;20433;-64
2023/10/09 13:47:47;;;;;;;17.73;9.03;;;20.00;99.90;;;;;;5071432;28;21005;-64
2023/10/09 13:50:13;;;;;;;11.73;9.80;;;20.10;99.90;;;;;;5091295;28;20477;-64
2023/10/09 13:52:39;;;;;;;12.07;10.67;;;20.00;99.90;;;;;;5098878;28;20453;-64
2023/10/09 13:55:16;;;;;;;12.47;10.53;;;20.00;99.90;;;;;;5101326;28;20434;-64
2023/10/09 13:57:48;;;;;;;13.60;10.37;;;20.00;99.90;;;;;;5105278;28;20469;-64
2023/10/09 14:00:32;;;;;;;13.37;11.67;;;20.00;99.90;;;;;;5104304;28;20490;-66
2023/10/09 14:03:23;;;;;;;14.00;10.40;;;19.90;99.90;;;;;;5101819;28;20473;-64
2023/10/09 14:05:54;;;;;;;13.57;9.97;;;19.90;99.90;;;;;;5094949;28;20437;-66
2023/10/09 14:08:28;;;;;;;15.07;12.47;;;19.80;99.90;;;;;;5079884;28;20429;-64
2023/10/09 14:10:54;;;;;;;13.73;11.17;;;19.80;99.90;;;;;;5104425;28;20440;-64
2023/10/09 14:13:28;;;;;;;13.53;10.80;;;19.70;99.90;;;;;;5099394;28;20434;-64
2023/10/09 14:15:54;;;;;;;16.07;11.40;;;19.70;99.90;;;;;;5101829;28;20182;-64
2023/10/09 14:19:12;;;;;;;15.70;10.37;;;19.60;99.90;;;;;;5095602;28;20462;-64
2023/10/09 14:21:56;;;;;;;14.50;11.03;;;19.70;99.90;;;;;;5027489;28;20898;-64
2023/10/09 14:24:40;;;;;;;13.93;11.17;;;19.60;99.90;;;;;;5099571;28;20428;-64
2023/10/09 14:27:11;;;;;;;12.40;8.77;;;19.60;99.90;;;;;;5080887;28;20428;-64
2023/10/09 14:29:42;;;;;;;12.07;10.00;;;19.60;99.90;;;;;;5099189;28;20499;-64
2023/10/09 14:32:15;;;;;;;10.87;9.77;;;19.60;99.90;;;;;;5103535;28;20435;-63
2023/10/09 14:34:54;;;;;;;14.97;12.77;;;19.50;99.90;;;;;;5098180;28;21421;-64
2023/10/09 14:37:20;;;;;;;14.67;10.43;;;19.50;99.90;;;;;;5095062;28;20493;-63
2023/10/09 14:43:24;;;;;;;12.47;10.60;;;19.40;99.90;;;;;;5033260;28;20443;-64
2023/10/09 14:46:10;;;;;;;21.00;12.40;;;19.30;99.90;;;;;;5032091;28;20440;-64
2023/10/09 14:48:46;;;;;;;14.77;12.10;;;19.40;99.90;;;;;;5038394;28;20523;-64
2023/10/09 14:51:13;;;;;;;17.33;13.43;;;19.30;99.90;;;;;;5059341;28;20482;-64
2023/10/09 14:53:40;;;;;;;15.33;13.50;;;19.30;99.90;;;;;;5055560;28;20439;-64
2023/10/09 14:56:14;;;;;;;17.83;13.13;;;19.30;99.90;;;;;;5070363;28;20521;-64
2023/10/09 14:58:46;;;;;;;14.40;12.30;;;19.30;99.90;;;;;;5103079;28;20431;-64
2023/10/09 15:01:56;;;;;;;18.70;12.30;;;19.20;99.90;;;;;;5079365;28;20440;-64
2023/10/09 15:04:25;;;;;;;17.80;12.70;;;19.20;99.90;;;;;;5099236;28;21018;-63
2023/10/09 15:06:54;;;;;;;19.93;13.43;;;19.20;99.90;;;;;;5102809;28;21253;-64
2023/10/09 15:09:31;;;;;;;15.60;13.83;;;19.20;99.90;;;;;;5083096;28;20436;-64
2023/10/09 15:11:56;;;;;;;17.80;12.80;;;19.20;99.90;;;;;;5096881;28;20476;-64
2023/10/09 15:14:28;;;;;;;18.17;13.23;;;19.20;99.90;;;;;;5099918;28;20430;-64
2023/10/09 15:16:54;;;;;;;13.80;11.43;;;19.20;99.90;;;;;;5098375;28;20216;-64
2023/10/09 15:19:29;;;;;;;17.03;13.30;;;19.20;99.90;;;;;;5079821;28;20485;-65
2023/10/09 15:22:09;;;;;;;20.30;13.50;;;19.10;99.90;;;;;;5098620;28;20275;-64
2023/10/09 15:24:40;;;;;;;18.70;13.47;;;19.10;99.90;;;;;;5101566;28;20437;-64
2023/10/09 15:27:13;;;;;;;15.50;12.00;;;19.10;99.90;;;;;;5102601;28;20519;-64
2023/10/09 15:29:43;;;;;;;17.23;14.50;;;19.10;99.90;;;;;;5094283;28;20433;-64
2023/10/09 15:32:15;;;;;;;20.30;14.53;;;19.10;99.90;;;;;;5097171;28;20444;-64
2023/10/09 15:34:41;;;;;;;17.50;14.37;;;19.10;99.90;;;;;;5098284;28;20433;-64
2023/10/09 15:37:13;;;;;;;18.10;13.77;;;19.10;99.90;;;;;;5102360;28;20518;-64
2023/10/09 15:39:45;;;;;;;16.87;12.67;;;19.10;99.90;;;;;;5100714;28;20469;-64
2023/10/09 15:42:13;;;;;;;14.73;13.13;;;19.00;99.90;;;;;;5101670;28;20434;-63
2023/10/09 15:45:21;;;;;;;17.87;13.20;;;19.00;99.90;;;;;;5091413;28;20462;-68
2023/10/09 15:47:47;;;;;;;19.23;13.80;;;19.00;99.90;;;;;;5101345;28;20437;-64
2023/10/09 15:50:34;;;;;;;23.70;13.67;;;18.90;99.90;;;;;;5080204;28;21250;-64
2023/10/09 15:53:16;;;;;;;17.30;12.70;;;18.90;99.90;;;;;;5098684;28;20429;-63
2023/10/09 15:56:13;;;;;;;15.53;12.97;;;18.90;99.90;;;;;;5097346;28;20436;-63
2023/10/09 15:58:45;;;;;;;17.40;13.70;;;18.90;99.90;;;;;;5102086;28;20973;-64
2023/10/09 16:01:43;;;;;;;18.97;14.27;;;18.90;99.90;;;;;;5099014;28;20520;-64
2023/10/09 16:04:19;;;;;;;14.93;12.33;;;18.80;99.90;;;;;;5088149;28;20433;-64
2023/10/09 16:07:01;;;;;;;15.53;13.80;;;18.80;99.90;;;;;;5101916;28;20421;-64
2023/10/09 16:09:42;;;;;;;17.53;12.80;;;18.90;99.90;;;;;;5101248;28;20417;-64
2023/10/09 16:12:13;;;;;;;16.33;12.40;;;18.80;99.90;;;;;;5097275;28;20422;-64
2023/10/09 16:14:53;;;;;;;15.00;13.27;;;18.80;99.90;;;;;;5099568;28;20483;-64
2023/10/09 16:17:24;;;;;;;19.67;14.03;;;18.80;99.90;;;;;;5067464;28;20465;-64
2023/10/09 16:20:00;;;;;;;14.33;12.10;;;18.80;99.90;;;;;;5083969;28;21053;-64
2023/10/09 16:22:41;;;;;;;17.77;15.87;;;18.80;99.90;;;;;;5103035;28;20433;-63
2023/10/09 16:25:17;;;;;;;19.57;14.93;;;18.80;99.90;;;;;;5105602;28;21158;-64
2023/10/09 16:28:09;;;;;;;16.77;12.43;;;18.80;99.90;;;;;;5100486;28;20432;-64
2023/10/09 16:31:25;;;;;;;16.30;12.07;;;18.80;99.90;;;;;;5101170;28;20421;-64
2023/10/09 16:34:15;;;;;;;22.57;16.30;;;18.80;99.90;;;;;;5098919;28;20434;-64
2023/10/09 16:36:56;;;;;;;19.00;15.07;;;18.70;99.90;;;;;;5098388;28;20481;-64
2023/10/09 16:39:24;;;;;;;17.57;14.17;;;18.70;99.90;;;;;;5104207;28;20505;-64
2023/10/09 16:41:56;;;;;;;17.10;15.30;;;18.70;99.90;;;;;;5105869;27;20461;-64
2023/10/09 16:44:21;;;;;;;20.17;18.03;;;18.70;99.90;;;;;;5100738;28;20464;-64
2023/10/09 16:46:54;;;;;;;16.37;14.63;;;18.70;99.90;;;;;;5104226;28;20856;-64
2023/10/09 16:49:25;;;;;;;18.90;16.50;;;18.60;99.90;;;;;;5101337;28;20405;-64
2023/10/09 16:51:51;;;;;;;17.73;15.67;;;18.70;99.90;;;;;;5103672;28;20435;-64
2023/10/09 16:54:26;;;;;;;20.17;15.23;;;18.60;99.90;;;;;;5104079;28;20414;-64
2023/10/09 16:56:56;;;;;;;21.20;15.67;;;18.60;99.90;;;;;;5100830;28;20477;-64
2023/10/09 16:59:38;;;;;;;22.40;20.00;;;18.60;99.90;;;;;;5100552;28;20417;-64
2023/10/09 17:02:07;;;;;;;28.57;25.73;;;18.50;99.90;;;;;;5100617;28;20429;-64
2023/10/09 17:04:34;;;;;;;34.00;30.47;;;18.50;99.90;;;;;;5104141;28;20433;-64
2023/10/09 17:07:04;;;;;;;35.73;30.60;;;18.50;99.90;;;;;;5096395;28;20423;-65
2023/10/09 17:12:40;;;;;;;21.30;18.53;;;18.50;99.90;;;;;;5102876;28;20433;-64
2023/10/09 17:15:07;;;;;;;19.33;14.50;;;18.50;99.90;;;;;;5099877;28;20425;-64
2023/10/09 17:17:36;;;;;;;20.37;15.60;;;18.50;99.90;;;;;;5099093;28;20522;-64
2023/10/09 17:20:09;;;;;;;16.87;13.80;;;18.40;99.90;;;;;;5100578;28;20429;-64
2023/10/09 17:22:38;;;;;;;23.00;16.43;;;18.40;99.90;;;;;;5098926;28;20441;-64
2023/10/09 17:25:12;;;;;;;20.93;15.37;;;18.40;99.90;;;;;;5099625;28;20516;-64
2023/10/09 17:27:55;;;;;;;20.93;14.70;;;18.40;99.90;;;;;;5098832;28;20421;-67
2023/10/09 17:30:27;;;;;;;16.03;13.77;;;18.30;99.90;;;;;;5096819;28;20525;-64
2023/10/09 17:32:57;;;;;;;18.77;15.23;;;18.30;99.90;;;;;;5097740;28;20423;-64
2023/10/09 17:36:05;;;;;;;20.23;14.17;;;18.30;99.90;;;;;;5097746;28;20434;-64
2023/10/09 17:38:39;;;;;;;23.43;16.43;;;18.30;99.90;;;;;;5044735;28;20441;-64